GOG weather

Gobabis Airport
Gobabis, Omaheke Region, Namibia

Public forecast

Using degrees Celsius for public forecast. Weather courtesy of forecast.io.

METAR (pilot weather report)

Retrieved 2019/02/23 10:00 UTC (22 minutes ago):

FYGB 231000Z AUTO 34004KT //// // ////// 35/09 Q1025

TAF (pilot weather forecast)

Forecast is more than 12 hours old.

Closest forecast is Witvlei Airport, 29.1 nm (53.9 km) WNW. Retrieved 2016/01/22 06:00 UTC (3 years ago):

TAF COR FYWI 220621Z 2206/2312 15009KT 9999 BKN030 BECMG 2217/2219 24005KT CAVOK